Du har inga inställningar för hoppväder.nu

Hoppväder.nu

Senast uppdaterat 00:29

UTC-tid

2020-07-06 kl. 22:29


Sol och måne

Solen går upp 2:42 och går ner 23:45 (beräknade cirkatider)
Nästa fullmåne blir om 27 dagar (2020-08-03)

METAR

ESNU (Umeå)
(9 minuter sedan)
ESNU 062220Z AUTO 31002KT 6000 BCFG SCT010/// BKN014/// 09/09 Q0990=



ESNO (Örnsköldsvik)
(9 minuter sedan)
ESNO 062220Z AUTO 35003KT 330V040 1300 R12/1800N R30/P2000N NCD 09/08 Q0990=



ESNS (Skellefteå)
(9 minuter sedan)
ESNS 062220Z AUTO 36004KT 9999 OVC003/// 11/10 Q0991=









TAF

ESNU (Umeå)
(70 minuter sedan)
ESNU AMD 062119Z 0621/0706 VRB02KT 9999 SCT020 TEMPO 0621/0622 0400 BCFG TEMPO 0622/0624 1200 SHRA BR BKN012 BKN040CB PROB40 0700/0706 2000 -RADZ BR BKN005=



ESNO (Örnsköldsvik)
ESNO



ESNS (Skellefteå)
ESNS





Kodnycklar till TAF och METAR






LHP

(Umeå är område se44c i Delområde 1)

Prognos är inte uppdaterad






Preliminär prognos